createdAt,value
2023-02-16T06:01:51.517Z,0.08
2023-02-16T06:04:19.866Z,0.07
2023-02-16T06:06:47.202Z,0.08
2023-02-16T06:09:13.846Z,0.07
2023-02-16T06:11:41.075Z,0.07
2023-02-16T06:14:10.555Z,0.05
2023-02-16T06:16:39.917Z,0.10
2023-02-16T06:19:07.029Z,0.08
2023-02-16T06:21:34.698Z,0.12
2023-02-16T06:24:02.507Z,0.09
2023-02-16T06:26:29.137Z,0.09
2023-02-16T06:28:56.619Z,0.12
2023-02-16T06:31:25.022Z,0.08
2023-02-16T06:33:53.114Z,0.07
2023-02-16T06:36:20.284Z,0.09
2023-02-16T06:38:47.622Z,0.10
2023-02-16T06:41:31.842Z,0.08
2023-02-16T06:44:05.140Z,0.12
2023-02-16T06:46:32.939Z,0.16
2023-02-16T06:49:00.078Z,0.12
2023-02-16T06:51:27.143Z,0.17
2023-02-16T06:53:54.546Z,0.18
2023-02-16T06:56:21.239Z,0.26
2023-02-16T06:58:48.655Z,0.25
2023-02-16T07:01:15.468Z,0.24
2023-02-16T07:03:42.448Z,0.24
2023-02-16T07:06:09.292Z,0.29
2023-02-16T07:08:36.557Z,0.30
2023-02-16T07:11:04.252Z,0.40
2023-02-16T07:13:31.825Z,0.43
2023-02-16T07:15:58.403Z,0.44
2023-02-16T07:18:25.631Z,0.48
2023-02-16T07:20:52.626Z,0.49
2023-02-16T07:23:19.223Z,0.57
2023-02-16T07:25:46.093Z,0.62
2023-02-16T07:28:13.887Z,0.69
2023-02-16T07:30:41.113Z,0.82
2023-02-16T07:33:08.389Z,0.91
2023-02-16T07:35:35.860Z,1.03
2023-02-16T07:38:04.707Z,1.21
2023-02-16T07:40:31.421Z,1.35
2023-02-16T07:43:03.178Z,1.50
2023-02-16T07:45:32.483Z,1.59
2023-02-16T07:48:00.295Z,1.88
2023-02-16T07:50:27.295Z,2.01
2023-02-16T07:52:54.586Z,2.16
2023-02-16T07:55:21.216Z,2.31
2023-02-16T07:57:49.730Z,2.40
2023-02-16T08:00:16.705Z,2.54
2023-02-16T08:02:43.954Z,2.67
2023-02-16T08:05:10.841Z,2.76
2023-02-16T08:07:38.462Z,2.89
2023-02-16T08:10:06.741Z,2.93
2023-02-16T08:12:34.266Z,3.06
2023-02-16T08:15:00.880Z,3.19
2023-02-16T08:17:28.098Z,3.32
2023-02-16T08:19:54.788Z,3.40
2023-02-16T08:22:22.185Z,3.48
2023-02-16T08:24:48.768Z,3.58
2023-02-16T08:27:16.046Z,3.68
2023-02-16T08:29:42.677Z,3.77
2023-02-16T08:32:13.313Z,3.83
2023-02-16T08:34:43.149Z,3.93
2023-02-16T08:37:13.553Z,4.02
2023-02-16T08:39:40.732Z,4.09
2023-02-16T08:42:08.794Z,4.20
2023-02-16T08:44:35.433Z,4.21
2023-02-16T08:47:03.001Z,4.31
2023-02-16T08:49:29.701Z,4.44
2023-02-16T08:51:59.024Z,4.49
2023-02-16T08:54:30.344Z,4.56
2023-02-16T08:57:00.037Z,4.64
2023-02-16T08:59:28.986Z,4.72
2023-02-16T09:01:57.979Z,4.79
2023-02-16T09:04:25.716Z,4.81
2023-02-16T09:06:53.718Z,4.96
2023-02-16T09:09:20.414Z,5.06
2023-02-16T09:11:49.861Z,5.16
2023-02-16T09:14:21.455Z,5.25
2023-02-16T09:16:49.547Z,5.38
2023-02-16T09:19:19.690Z,5.47
2023-02-16T09:21:49.008Z,5.58
2023-02-16T09:24:16.005Z,5.67
2023-02-16T09:26:44.904Z,5.68
2023-02-16T09:29:12.945Z,5.78
2023-02-16T09:31:40.319Z,5.79
2023-02-16T09:34:30.534Z,5.83
2023-02-16T09:36:58.602Z,5.91
2023-02-16T09:39:25.453Z,5.98
2023-02-16T09:42:10.354Z,6.05
2023-02-16T09:45:11.437Z,6.08
2023-02-16T09:47:42.340Z,6.22
2023-02-16T09:50:52.069Z,6.32
2023-02-16T09:53:22.807Z,6.42
2023-02-16T09:56:28.405Z,6.53
2023-02-16T09:59:14.662Z,6.54
2023-02-16T10:02:15.632Z,6.69
2023-02-16T10:04:48.814Z,6.79
2023-02-16T10:07:29.698Z,6.79
2023-02-16T10:09:58.261Z,6.84
2023-02-16T10:12:29.359Z,6.91
2023-02-16T10:15:07.501Z,6.98
2023-02-16T10:17:45.292Z,7.09
2023-02-16T10:20:34.521Z,7.18
2023-02-16T10:23:35.021Z,7.28
2023-02-16T10:26:28.538Z,7.30
2023-02-16T10:29:00.334Z,7.30
2023-02-16T10:31:40.129Z,7.36
2023-02-16T10:34:38.388Z,7.41
2023-02-16T10:37:39.431Z,7.45
2023-02-16T10:40:12.165Z,7.54
2023-02-16T10:42:46.046Z,7.56
2023-02-16T10:45:32.136Z,7.68
2023-02-16T10:48:00.016Z,7.67
2023-02-16T10:50:33.071Z,7.78
2023-02-16T10:53:08.734Z,7.82
2023-02-16T10:55:37.605Z,7.80
2023-02-16T10:58:04.887Z,7.83
2023-02-16T11:00:53.377Z,7.92
2023-02-16T11:03:24.883Z,7.98
2023-02-16T11:05:53.306Z,8.06
2023-02-16T11:08:20.864Z,8.17
2023-02-16T11:10:50.980Z,8.21
2023-02-16T11:13:34.107Z,8.15
2023-02-16T11:16:06.917Z,8.12
2023-02-16T11:18:42.136Z,8.16
2023-02-16T11:21:10.829Z,8.32
2023-02-16T11:23:57.562Z,8.37
2023-02-16T11:26:26.023Z,8.36
2023-02-16T11:28:53.741Z,8.40
2023-02-16T11:31:30.491Z,8.55
2023-02-16T11:34:06.212Z,8.58
2023-02-16T11:36:40.399Z,8.57
2023-02-16T11:39:31.482Z,8.60
2023-02-16T11:42:02.765Z,8.70
2023-02-16T11:44:42.230Z,8.83
2023-02-16T11:47:29.494Z,8.86
2023-02-16T11:50:27.211Z,8.97
2023-02-16T11:52:57.830Z,9.05
2023-02-16T11:55:33.355Z,9.06
2023-02-16T11:58:22.744Z,9.16
2023-02-16T12:01:11.468Z,9.23
2023-02-16T12:03:50.428Z,9.22
2023-02-16T12:06:27.066Z,9.33
2023-02-16T12:09:11.074Z,9.38
2023-02-16T12:12:00.525Z,9.42
2023-02-16T12:14:49.081Z,9.46
2023-02-16T12:17:28.651Z,9.41
2023-02-16T12:20:05.663Z,9.44
2023-02-16T12:22:55.870Z,9.42
2023-02-16T12:25:52.001Z,9.52
2023-02-16T12:28:42.235Z,9.52
2023-02-16T12:31:34.732Z,9.55
2023-02-16T12:34:13.953Z,9.68
2023-02-16T12:36:53.431Z,9.61
2023-02-16T12:39:30.294Z,9.60
2023-02-16T12:42:36.140Z,9.64
2023-02-16T12:45:15.157Z,9.72
2023-02-16T12:47:53.993Z,9.84
2023-02-16T12:50:33.653Z,9.92
2023-02-16T12:53:07.181Z,10.08
2023-02-16T12:55:43.359Z,10.16
2023-02-16T12:58:16.286Z,10.14
2023-02-16T13:00:49.946Z,10.16
2023-02-16T13:03:16.521Z,10.15
2023-02-16T13:05:49.220Z,10.14
2023-02-16T13:08:47.415Z,10.06
2023-02-16T13:11:23.822Z,10.16
2023-02-16T13:13:53.609Z,10.24
2023-02-16T13:16:32.191Z,10.21
2023-02-16T13:18:59.076Z,10.28
2023-02-16T13:21:51.674Z,10.25
2023-02-16T13:24:33.719Z,10.35
2023-02-16T13:27:01.424Z,10.34
2023-02-16T13:29:37.385Z,10.34
2023-02-16T13:32:22.697Z,10.29
2023-02-16T13:35:40.024Z,10.25
2023-02-16T13:38:37.401Z,10.20
2023-02-16T13:41:20.860Z,9.93
2023-02-16T13:44:03.824Z,9.79
2023-02-16T13:46:45.868Z,9.78
2023-02-16T13:49:36.156Z,9.80
2023-02-16T13:52:04.348Z,9.73
2023-02-16T13:54:36.630Z,9.63
2023-02-16T13:57:04.932Z,9.62
2023-02-16T13:59:37.529Z,9.55
2023-02-16T14:02:11.350Z,9.55
2023-02-16T14:04:38.613Z,9.62
2023-02-16T14:07:07.255Z,9.70
2023-02-16T14:09:36.845Z,9.80
2023-02-16T14:12:36.098Z,9.84
2023-02-16T14:15:18.373Z,9.92
2023-02-16T14:17:47.469Z,9.90
2023-02-16T14:20:14.933Z,9.81
2023-02-16T14:23:00.374Z,9.88
2023-02-16T14:25:30.755Z,9.89
2023-02-16T14:28:07.253Z,9.92
2023-02-16T14:30:56.066Z,9.89
2023-02-16T14:33:39.096Z,9.90
2023-02-16T14:36:14.025Z,9.86
2023-02-16T14:38:41.646Z,9.84
2023-02-16T14:41:29.929Z,9.73
2023-02-16T14:44:06.259Z,9.76
2023-02-16T14:46:52.258Z,9.75
2023-02-16T14:49:38.546Z,9.61
2023-02-16T14:52:28.679Z,9.58
2023-02-16T14:55:53.421Z,9.52
2023-02-16T14:58:29.388Z,9.50
2023-02-16T15:01:05.943Z,9.51
2023-02-16T15:03:46.645Z,9.49
2023-02-16T15:06:26.341Z,9.43
2023-02-16T15:08:59.040Z,9.44
2023-02-16T15:11:35.546Z,9.40
2023-02-16T15:14:09.524Z,9.34
2023-02-16T15:16:40.367Z,9.35
2023-02-16T15:19:22.868Z,9.37
2023-02-16T15:22:07.787Z,9.35
2023-02-16T15:24:34.771Z,9.37
2023-02-16T15:27:02.728Z,9.38
2023-02-16T15:29:30.645Z,9.36
2023-02-16T15:31:59.343Z,9.35
2023-02-16T15:34:36.338Z,9.35
2023-02-16T15:37:24.219Z,9.24
2023-02-16T15:40:12.122Z,9.23
2023-02-16T15:42:41.008Z,9.21
2023-02-16T15:45:27.017Z,9.19
2023-02-16T15:47:53.652Z,9.20
2023-02-16T15:50:27.099Z,9.17
2023-02-16T15:52:56.501Z,9.23
2023-02-16T15:55:24.495Z,9.16
2023-02-16T15:57:51.197Z,9.14
2023-02-16T16:00:21.388Z,9.09
2023-02-16T16:02:58.285Z,9.05
2023-02-16T16:05:30.106Z,9.10
2023-02-16T16:07:57.270Z,9.09
2023-02-16T16:10:26.521Z,9.09
2023-02-16T16:12:59.057Z,9.11
2023-02-16T16:15:29.157Z,9.12
2023-02-16T16:17:59.709Z,9.13
2023-02-16T16:20:33.073Z,9.06
2023-02-16T16:23:04.508Z,9.06
2023-02-16T16:25:34.811Z,9.03
2023-02-16T16:28:03.451Z,9.02
2023-02-16T16:30:33.330Z,9.00
2023-02-16T16:33:08.922Z,8.97
2023-02-16T16:35:45.007Z,8.98
2023-02-16T16:38:25.265Z,8.98
2023-02-16T16:40:55.324Z,8.99
2023-02-16T16:43:26.628Z,8.99
2023-02-16T16:46:17.918Z,8.97
2023-02-16T16:48:48.343Z,8.97
2023-02-16T16:51:39.936Z,8.94
2023-02-16T16:54:30.431Z,8.90
2023-02-16T16:56:57.730Z,8.88
2023-02-16T16:59:24.292Z,8.81
2023-02-16T17:01:53.064Z,8.77
2023-02-16T17:04:19.768Z,8.76
2023-02-16T17:06:48.471Z,8.75
2023-02-16T17:09:16.839Z,8.72
2023-02-16T17:11:44.222Z,8.71
2023-02-16T17:14:16.712Z,8.70
2023-02-16T17:16:47.220Z,8.66
2023-02-16T17:19:16.235Z,8.68
2023-02-16T17:21:44.322Z,8.71
2023-02-16T17:24:11.590Z,8.66
2023-02-16T17:26:39.524Z,8.58
2023-02-16T17:29:07.112Z,8.55
2023-02-16T17:31:34.926Z,8.51
2023-02-16T17:34:01.536Z,8.43
2023-02-16T17:36:29.194Z,8.47
2023-02-16T17:38:55.808Z,8.49
2023-02-16T17:41:28.399Z,8.51
2023-02-16T17:43:54.993Z,8.47
2023-02-16T17:46:23.576Z,8.48
2023-02-16T17:48:54.936Z,8.49
2023-02-16T17:51:24.707Z,8.46
2023-02-16T17:53:51.600Z,8.38
2023-02-16T17:56:21.955Z,8.44
2023-02-16T17:58:48.704Z,8.43
2023-02-16T18:01:17.845Z,8.41
2023-02-16T18:03:44.603Z,8.40
2023-02-16T18:06:19.890Z,8.38
2023-02-16T18:08:46.939Z,8.37
2023-02-16T18:11:14.596Z,8.38
2023-02-16T18:13:41.308Z,8.40
2023-02-16T18:16:13.483Z,8.38
2023-02-16T18:18:40.180Z,8.42
2023-02-16T18:21:07.844Z,8.44
2023-02-16T18:23:34.485Z,8.46
2023-02-16T18:26:02.144Z,8.45
2023-02-16T18:28:31.404Z,8.43
2023-02-16T18:30:58.966Z,8.43
2023-02-16T18:33:26.318Z,8.42
2023-02-16T18:35:57.731Z,8.42
2023-02-16T18:38:25.030Z,8.42
2023-02-16T18:40:54.277Z,8.37
2023-02-16T18:43:21.866Z,8.37
2023-02-16T18:45:49.442Z,8.38
2023-02-16T18:48:16.100Z,8.33
2023-02-16T18:50:43.063Z,8.31
2023-02-16T18:53:09.670Z,8.32
2023-02-16T18:55:36.912Z,8.33
2023-02-16T18:58:07.455Z,8.33
2023-02-16T19:00:36.402Z,8.30
2023-02-16T19:03:03.236Z,8.30
2023-02-16T19:05:30.842Z,8.34
2023-02-16T19:07:57.483Z,8.27
2023-02-16T19:10:25.512Z,8.25
2023-02-16T19:12:52.304Z,8.30
2023-02-16T19:15:19.614Z,8.25
2023-02-16T19:17:46.155Z,8.26
2023-02-16T19:20:18.547Z,8.32
2023-02-16T19:22:46.553Z,8.38
2023-02-16T19:25:14.526Z,8.40
2023-02-16T19:27:42.035Z,8.41
2023-02-16T19:30:09.003Z,8.42
2023-02-16T19:32:36.088Z,8.44
2023-02-16T19:35:03.622Z,8.38
2023-02-16T19:37:30.899Z,8.41
2023-02-16T19:39:57.795Z,8.45
2023-02-16T19:42:24.771Z,8.45
2023-02-16T19:44:51.497Z,8.42
2023-02-16T19:47:18.907Z,8.32
2023-02-16T19:49:45.710Z,8.32
2023-02-16T19:52:12.700Z,8.28
2023-02-16T19:54:39.533Z,8.28
2023-02-16T19:57:06.198Z,8.31
2023-02-16T19:59:33.303Z,8.27
2023-02-16T20:02:00.441Z,8.23
2023-02-16T20:04:28.467Z,8.24
2023-02-16T20:06:56.362Z,8.22
2023-02-16T20:09:24.515Z,8.23
2023-02-16T20:11:51.913Z,8.24
2023-02-16T20:14:18.511Z,8.20
2023-02-16T20:16:45.204Z,8.23
2023-02-16T20:19:12.455Z,8.21
2023-02-16T20:21:40.819Z,8.20
2023-02-16T20:24:07.607Z,8.15
2023-02-16T20:26:40.780Z,8.16
2023-02-16T20:29:10.057Z,8.09
2023-02-16T20:31:48.554Z,8.05
2023-02-16T20:34:16.055Z,8.10
2023-02-16T20:36:42.883Z,8.12
2023-02-16T20:39:09.736Z,8.13
2023-02-16T20:41:36.960Z,8.07
2023-02-16T20:44:04.491Z,8.06
2023-02-16T20:46:31.082Z,8.09
2023-02-16T20:48:58.337Z,8.12
2023-02-16T20:51:25.293Z,8.19
2023-02-16T20:53:52.653Z,8.16
2023-02-16T20:56:22.109Z,8.20
2023-02-16T20:58:49.930Z,8.24
2023-02-16T21:01:24.344Z,8.15
2023-02-16T21:03:52.581Z,8.14
2023-02-16T21:06:19.775Z,8.13
2023-02-16T21:08:47.459Z,8.17
2023-02-16T21:11:14.265Z,8.19
2023-02-16T21:13:42.100Z,8.15
2023-02-16T21:16:08.897Z,8.19
2023-02-16T21:18:39.992Z,8.21
2023-02-16T21:21:07.563Z,8.17
2023-02-16T21:23:35.050Z,8.20
2023-02-16T21:26:04.462Z,8.18
2023-02-16T21:28:31.964Z,8.21
